Nattehimlen netop nu: Delvis måneformørkelse (65%) den 16.juli mellem kl.22-2330, og Perseiderne topper den 13.august med 120 stjerneskud i timen.
  • Ny Tablet venlig Vejr3


  • Vejr3>N more information Vejr3>N


    rain radar more information rain snow radar


    visit our other weather sites:

    Template dokumentation
    og downloads

    And another site


    Select another period ( hide this area )

    units period Custom range Directly to
    metric english both
    daily weekly monthly yearly
    use both date-selectors for a custom range
    previous day
    With this date

    WeatherUnderground graphs for this period ( click here )


    daily summary for thursday 18 july 2019
    time Temp. ( °C ) Dew pt. ( °C ) wind ( km/h ) from gust ( km/h ) pressure ( hPa ) Humid.( % ) Rainrate ( cm ) solar ( W/m2 )
    high18,7 14,8 16,7 sse ( 348/750 ) 9,8 1011,9 97 - 394
    average12,3 10,7 7,3 sse #46/103 5,6 1011,4 90 - 150 #44/103
    low9,9 8,9 -   0,0 1011,1 78 -  
    daily Tabular details for thursday 18 july 2019
    time Temp. ( °C ) Dew pt. ( °C ) wind ( km/h ) from gust ( km/h ) pressure ( hPa ) Humid.( % ) Rainrate ( cm ) solar ( W/m2 )
    00:04 12,6 10,2 5,6 east 4,8 1011,9 85 - -
    00:07 12,6 10,1 5,6 ese 3,2 1011,9 85 - -
    00:14 12,4 10,1 6,4 ese 5,1 1011,9 86 - -
    00:19 12,3 10,0 5,6 ese 4,7 1011,9 86 - -
    00:24 12,2 10,1 5,6 ese 4,0 1011,9 87 - -
    00:29 12,2 10,1 5,6 ese 4,2 1011,9 87 - -
    00:34 12,0 9,9 6,4 ese 5,6 1011,9 87 - -
    00:39 11,9 9,9 5,6 ese 3,9 1011,9 88 - -
    00:44 11,8 9,9 5,6 east 5,3 1011,9 88 - -
    00:49 11,7 9,8 6,4 east 6,0 1011,8 88 - -
    00:54 11,7 9,6 5,6 ese 4,7 1011,8 87 - -
    00:59 11,6 9,6 5,6 ese 3,5 1011,8 88 - -
    01:04 11,5 9,6 5,6 ese 5,0 1011,9 88 - -
    01:09 11,4 9,5 5,6 ese 5,0 1011,8 88 - -
    01:14 11,4 9,4 5,6 ese 5,3 1011,8 88 - -
    01:19 11,3 9,6 5,6 ese 5,0 1011,8 89 - -
    01:24 11,3 9,6 5,6 ese 5,6 1011,8 89 - -
    01:29 11,3 9,6 5,6 ese 4,7 1011,8 89 - -
    01:34 11,2 9,5 5,6 se 5,3 1011,8 89 - -
    01:39 11,2 9,4 8,0 se 5,3 1011,8 89 - -
    01:44 11,1 9,6 7,4 se 6,3 1011,8 90 - -
    01:49 11,0 9,4 6,4 se 5,8 1011,8 90 - -
    01:54 11,0 9,4 7,4 se 5,1 1011,7 90 - -
    01:59 10,9 9,4 5,6 se 6,1 1011,6 90 - -
    02:04 10,9 9,2 6,4 sse 5,0 1011,7 89 - -
    02:09 10,8 9,3 6,4 sse 4,8 1011,7 90 - -
    02:14 10,8 9,3 5,6 sse 4,7 1011,7 90 - -
    02:19 10,8 9,2 5,6 sse 4,2 1011,7 90 - -
    02:24 10,6 9,1 8,0 sse 7,1 1011,6 90 - -
    02:29 10,6 9,0 9,3 sse 8,2 1011,6 90 - -
    02:34 10,4 8,9 8,0 sse 7,2 1011,6 90 - -
    02:39 10,5 9,1 7,4 sse 6,1 1011,5 91 - -
    02:44 10,8 9,6 7,4 sse 6,6 1011,4 92 - -
    02:49 11,0 9,7 7,4 south 6,1 1011,4 92 - -
    02:54 11,2 9,8 7,4 sse 6,8 1011,4 91 - -
    02:59 11,1 9,6 5,6 sse 4,8 1011,4 90 - -
    03:04 11,1 9,7 7,4 south 6,1 1011,4 91 - -
    03:09 11,2 9,9 7,4 sse 6,0 1011,4 92 - -
    03:14 11,2 9,8 7,4 south 5,5 1011,3 91 - -
    03:19 11,3 9,9 8,0 south 5,5 1011,4 91 - -
    03:24 11,3 10,1 8,0 sse 6,1 1011,3 92 - -
    03:29 11,3 10,1 9,3 sse 7,2 1011,3 92 - -
    03:34 11,2 9,6 9,3 sse 7,4 1011,3 90 - -
    03:39 10,8 9,3 8,0 sse 7,4 1011,2 90 - -
    03:44 10,6 9,0 9,7 sse 8,7 1011,2 90 - -
    03:49 10,4 9,1 9,3 sse 8,2 1011,2 91 - -
    03:54 10,4 9,2 7,4 se 4,2 1011,2 92 - -
    03:59 10,4 9,2 5,6 se 3,7 1011,2 92 - -
    04:04 10,3 9,1 6,4 sse 5,8 1011,2 92 - -
    04:09 10,3 9,2 8,0 sse 6,6 1011,3 93 - -
    04:14 10,3 9,3 8,0 sse 7,9 1011,3 93 - -
    04:19 10,4 9,3 8,0 sse 7,6 1011,2 93 - -
    04:24 10,4 9,3 9,7 sse 8,5 1011,1 93 - -
    04:29 10,2 9,2 9,7 se 9,0 1011,2 93 - -
    04:34 10,1 9,0 9,7 se 9,0 1011,3 93 - -
    04:39 9,9 8,9 8,0 sse 7,4 1011,2 93 - -
    04:44 9,9 8,9 7,4 sse 6,6 1011,3 93 - -
    04:49 10,0 9,1 9,3 sse 8,0 1011,3 94 - -
    04:54 10,1 9,1 8,0 sse 6,1 1011,3 94 - -
    04:59 10,1 9,1 8,0 sse 6,9 1011,3 94 - 5
    05:04 10,1 9,3 9,3 sse 7,9 1011,3 95 - 7
    05:09 10,2 9,4 7,4 sse 6,1 1011,2 95 - 9
    05:14 10,2 9,4 5,6 se 3,4 1011,2 95 - 11
    05:19 10,2 9,4 5,6 sse 3,7 1011,2 95 - 11
    05:24 10,2 9,4 3,7 ssw 1,3 1011,2 95 - 12
    05:29 10,3 9,5 5,6 south 3,1 1011,2 95 - 14
    05:34 10,6 10,0 9,3 south 5,6 1011,2 96 - 16
    05:39 11,0 10,6 8,0 south 6,9 1011,3 97 - 18
    05:44 11,3 10,8 5,6 sse 4,7 1011,3 97 - 19
    05:49 11,5 10,9 5,6 south 4,5 1011,3 96 - 25
    05:54 11,6 11,0 5,6 south 4,7 1011,2 96 - 53
    05:59 11,8 11,2 9,3 sse 7,9 1011,2 96 - 60
    06:04 11,9 11,3 9,3 sse 6,6 1011,2 96 - 60
    06:09 11,8 11,1 7,4 sse 5,5 1011,1 95 - 72
    06:14 11,9 11,1 6,4 south 5,8 1011,2 95 - 104
    06:19 12,1 11,3 5,6 sse 4,2 1011,2 95 - 114
    06:24 12,3 11,7 5,6 sse 3,4 1011,2 96 - 123
    06:29 12,6 11,9 5,6 south 3,7 1011,1 96 - 128
    06:34 12,9 12,1   calm   1011,2 95 - 135
    06:39 13,2 12,4 4,8 sse 3,7 1011,1 95 - 142
    06:44 13,7 12,9 5,6 sse 3,9 1011,1 95 - 151
    06:49 14,0 13,1 5,6 sse 3,5 1011,2 94 - 160
    06:54 14,4 13,3 5,6 south 4,5 1011,1 93 - 171
    06:59 14,6 13,3 7,4 sse 6,0 1011,2 92 - 181
    07:04 14,8 13,4 5,6 sse 4,0 1011,2 91 - 192
    07:09 15,1 13,6 5,6 se 2,7 1011,2 91 - 200
    07:14 15,3 13,7 7,4 sse 5,5 1011,2 90 - 102
    07:19 15,6 13,7 11,3 sse 6,4 1011,2 89 - 202
    07:24 15,7 13,7 8,0 sse 6,3 1011,2 88 - 234
    07:29 15,9 13,8 5,6 se 4,3 1011,2 87 - 244
    07:34 16,2 13,7 9,3 se 6,6 1011,2 85 - 257
    07:39 16,4 13,8 7,4 se 6,1 1011,3 85 - 267
    07:44 16,6 14,1 8,0 sse 5,5 1011,2 85 - 274
    07:49 16,8 14,1 9,7 se 7,6 1011,2 84 - 272
    07:54 16,9 14,1 16,7 ssw 9,8 1011,2 83 - 267
    07:59 17,1 14,2 16,7 ssw 7,9 1011,2 83 - 265
    08:04 17,2 14,1 11,1 south 7,7 1011,2 82 - 255
    08:09 17,4 14,5 8,0 south 4,3 1011,2 83 - 239
    08:14 17,7 14,6 9,3 ssw 6,1 1011,2 82 - 234
    08:19 17,9 14,6 5,6 ssw 4,2 1011,2 81 - 255
    08:24 18,3 14,6 9,3 ssw 6,1 1011,3 79 - 304
    08:29 18,6 14,7 11,1 se 7,2 1011,3 78 - 353
    08:34 18,7 14,8 9,3 south 3,9 1011,3 78 - 394
    daily summary for thursday 18 july 2019
    time Temp. ( °C ) Dew pt. ( °C ) wind ( km/h ) from gust ( km/h ) pressure ( hPa ) Humid.( % ) Rainrate ( cm ) solar ( W/m2 )
    high18,7 14,8 16,7 sse ( 348/750 ) 9,8 1011,9 97 - 394
    average12,3 10,7 7,3 sse #46/103 5,6 1011,4 90 - 150 #44/103
    low9,9 8,9 -   0,0 1011,1 78 -  
    daily Tabular details for thursday 18 july 2019
    time Temp. ( °C ) Dew pt. ( °C ) wind ( km/h ) from gust ( km/h ) pressure ( hPa ) Humid.( % ) Rainrate ( cm ) solar ( W/m2 )
    00:04 12,6 10,2 5,6 east 4,8 1011,9 85 - -
    00:07 12,6 10,1 5,6 ese 3,2 1011,9 85 - -
    00:14 12,4 10,1 6,4 ese 5,1 1011,9 86 - -
    00:19 12,3 10,0 5,6 ese 4,7 1011,9 86 - -
    00:24 12,2 10,1 5,6 ese 4,0 1011,9 87 - -
    00:29 12,2 10,1 5,6 ese 4,2 1011,9 87 - -
    00:34 12,0 9,9 6,4 ese 5,6 1011,9 87 - -
    00:39 11,9 9,9 5,6 ese 3,9 1011,9 88 - -
    00:44 11,8 9,9 5,6 east 5,3 1011,9 88 - -
    00:49 11,7 9,8 6,4 east 6,0 1011,8 88 - -
    00:54 11,7 9,6 5,6 ese 4,7 1011,8 87 - -
    00:59 11,6 9,6 5,6 ese 3,5 1011,8 88 - -
    01:04 11,5 9,6 5,6 ese 5,0 1011,9 88 - -
    01:09 11,4 9,5 5,6 ese 5,0 1011,8 88 - -
    01:14 11,4 9,4 5,6 ese 5,3 1011,8 88 - -
    01:19 11,3 9,6 5,6 ese 5,0 1011,8 89 - -
    01:24 11,3 9,6 5,6 ese 5,6 1011,8 89 - -
    01:29 11,3 9,6 5,6 ese 4,7 1011,8 89 - -
    01:34 11,2 9,5 5,6 se 5,3 1011,8 89 - -
    01:39 11,2 9,4 8,0 se 5,3 1011,8 89 - -
    01:44 11,1 9,6 7,4 se 6,3 1011,8 90 - -
    01:49 11,0 9,4 6,4 se 5,8 1011,8 90 - -
    01:54 11,0 9,4 7,4 se 5,1 1011,7 90 - -
    01:59 10,9 9,4 5,6 se 6,1 1011,6 90 - -
    02:04 10,9 9,2 6,4 sse 5,0 1011,7 89 - -
    02:09 10,8 9,3 6,4 sse 4,8 1011,7 90 - -
    02:14 10,8 9,3 5,6 sse 4,7 1011,7 90 - -
    02:19 10,8 9,2 5,6 sse 4,2 1011,7 90 - -
    02:24 10,6 9,1 8,0 sse 7,1 1011,6 90 - -
    02:29 10,6 9,0 9,3 sse 8,2 1011,6 90 - -
    02:34 10,4 8,9 8,0 sse 7,2 1011,6 90 - -
    02:39 10,5 9,1 7,4 sse 6,1 1011,5 91 - -
    02:44 10,8 9,6 7,4 sse 6,6 1011,4 92 - -
    02:49 11,0 9,7 7,4 south 6,1 1011,4 92 - -
    02:54 11,2 9,8 7,4 sse 6,8 1011,4 91 - -
    02:59 11,1 9,6 5,6 sse 4,8 1011,4 90 - -
    03:04 11,1 9,7 7,4 south 6,1 1011,4 91 - -
    03:09 11,2 9,9 7,4 sse 6,0 1011,4 92 - -
    03:14 11,2 9,8 7,4 south 5,5 1011,3 91 - -
    03:19 11,3 9,9 8,0 south 5,5 1011,4 91 - -
    03:24 11,3 10,1 8,0 sse 6,1 1011,3 92 - -
    03:29 11,3 10,1 9,3 sse 7,2 1011,3 92 - -
    03:34 11,2 9,6 9,3 sse 7,4 1011,3 90 - -
    03:39 10,8 9,3 8,0 sse 7,4 1011,2 90 - -
    03:44 10,6 9,0 9,7 sse 8,7 1011,2 90 - -
    03:49 10,4 9,1 9,3 sse 8,2 1011,2 91 - -
    03:54 10,4 9,2 7,4 se 4,2 1011,2 92 - -
    03:59 10,4 9,2 5,6 se 3,7 1011,2 92 - -
    04:04 10,3 9,1 6,4 sse 5,8 1011,2 92 - -
    04:09 10,3 9,2 8,0 sse 6,6 1011,3 93 - -
    04:14 10,3 9,3 8,0 sse 7,9 1011,3 93 - -
    04:19 10,4 9,3 8,0 sse 7,6 1011,2 93 - -
    04:24 10,4 9,3 9,7 sse 8,5 1011,1 93 - -
    04:29 10,2 9,2 9,7 se 9,0 1011,2 93 - -
    04:34 10,1 9,0 9,7 se 9,0 1011,3 93 - -
    04:39 9,9 8,9 8,0 sse 7,4 1011,2 93 - -
    04:44 9,9 8,9 7,4 sse 6,6 1011,3 93 - -
    04:49 10,0 9,1 9,3 sse 8,0 1011,3 94 - -
    04:54 10,1 9,1 8,0 sse 6,1 1011,3 94 - -
    04:59 10,1 9,1 8,0 sse 6,9 1011,3 94 - 5
    05:04 10,1 9,3 9,3 sse 7,9 1011,3 95 - 7
    05:09 10,2 9,4 7,4 sse 6,1 1011,2 95 - 9
    05:14 10,2 9,4 5,6 se 3,4 1011,2 95 - 11
    05:19 10,2 9,4 5,6 sse 3,7 1011,2 95 - 11
    05:24 10,2 9,4 3,7 ssw 1,3 1011,2 95 - 12
    05:29 10,3 9,5 5,6 south 3,1 1011,2 95 - 14
    05:34 10,6 10,0 9,3 south 5,6 1011,2 96 - 16
    05:39 11,0 10,6 8,0 south 6,9 1011,3 97 - 18
    05:44 11,3 10,8 5,6 sse 4,7 1011,3 97 - 19
    05:49 11,5 10,9 5,6 south 4,5 1011,3 96 - 25
    05:54 11,6 11,0 5,6 south 4,7 1011,2 96 - 53
    05:59 11,8 11,2 9,3 sse 7,9 1011,2 96 - 60
    06:04 11,9 11,3 9,3 sse 6,6 1011,2 96 - 60
    06:09 11,8 11,1 7,4 sse 5,5 1011,1 95 - 72
    06:14 11,9 11,1 6,4 south 5,8 1011,2 95 - 104
    06:19 12,1 11,3 5,6 sse 4,2 1011,2 95 - 114
    06:24 12,3 11,7 5,6 sse 3,4 1011,2 96 - 123
    06:29 12,6 11,9 5,6 south 3,7 1011,1 96 - 128
    06:34 12,9 12,1   calm   1011,2 95 - 135
    06:39 13,2 12,4 4,8 sse 3,7 1011,1 95 - 142
    06:44 13,7 12,9 5,6 sse 3,9 1011,1 95 - 151
    06:49 14,0 13,1 5,6 sse 3,5 1011,2 94 - 160
    06:54 14,4 13,3 5,6 south 4,5 1011,1 93 - 171
    06:59 14,6 13,3 7,4 sse 6,0 1011,2 92 - 181
    07:04 14,8 13,4 5,6 sse 4,0 1011,2 91 - 192
    07:09 15,1 13,6 5,6 se 2,7 1011,2 91 - 200
    07:14 15,3 13,7 7,4 sse 5,5 1011,2 90 - 102
    07:19 15,6 13,7 11,3 sse 6,4 1011,2 89 - 202
    07:24 15,7 13,7 8,0 sse 6,3 1011,2 88 - 234
    07:29 15,9 13,8 5,6 se 4,3 1011,2 87 - 244
    07:34 16,2 13,7 9,3 se 6,6 1011,2 85 - 257
    07:39 16,4 13,8 7,4 se 6,1 1011,3 85 - 267
    07:44 16,6 14,1 8,0 sse 5,5 1011,2 85 - 274
    07:49 16,8 14,1 9,7 se 7,6 1011,2 84 - 272
    07:54 16,9 14,1 16,7 ssw 9,8 1011,2 83 - 267
    07:59 17,1 14,2 16,7 ssw 7,9 1011,2 83 - 265
    08:04 17,2 14,1 11,1 south 7,7 1011,2 82 - 255
    08:09 17,4 14,5 8,0 south 4,3 1011,2 83 - 239
    08:14 17,7 14,6 9,3 ssw 6,1 1011,2 82 - 234
    08:19 17,9 14,6 5,6 ssw 4,2 1011,2 81 - 255
    08:24 18,3 14,6 9,3 ssw 6,1 1011,3 79 - 304
    08:29 18,6 14,7 11,1 se 7,2 1011,3 78 - 353
    08:34 18,7 14,8 9,3 south 3,9 1011,3 78 - 394

    Download your copy of this data-set  here

    Our weather-data as stored at Weather Underground. script developed by Jim McMurry. adapted for the template by Leuven-Template.eu

    you find our weather info also at:

    European Weather Network

    Weather Underground

    AWEKAS

    WeatherlinkIP

    Citizen Weather Observer Program (CWOP)

    equipment we use:

    weather-station
    Davis VP2+

    weather-program
    Weather Display

    weather-server
    Dell E6400

    provider
    Webhosting.dk

    Davis VP2+

    Weather Display

    Dell E6400

    Webhosting.dk